createdAt,value
2024-02-29T00:01:41.541Z,12.75
2024-02-29T00:04:10.197Z,14.02
2024-02-29T00:06:38.261Z,13.63
2024-02-29T00:09:06.261Z,14.63
2024-02-29T00:11:35.927Z,14.27
2024-02-29T00:14:04.134Z,14.68
2024-02-29T00:16:32.734Z,15.20
2024-02-29T00:19:00.797Z,13.83
2024-02-29T00:21:30.574Z,14.68
2024-02-29T00:23:58.660Z,14.80
2024-02-29T00:26:27.463Z,15.55
2024-02-29T00:28:56.898Z,16.02
2024-02-29T00:31:25.788Z,16.20
2024-02-29T00:33:53.849Z,16.98
2024-02-29T00:36:22.170Z,16.93
2024-02-29T00:38:58.597Z,17.13
2024-02-29T00:41:30.368Z,16.75
2024-02-29T00:43:59.755Z,18.27
2024-02-29T00:46:27.843Z,17.75
2024-02-29T00:48:55.920Z,17.40
2024-02-29T00:51:24.049Z,17.85
2024-02-29T00:53:52.260Z,17.58
2024-02-29T00:56:20.326Z,18.38
2024-02-29T00:58:48.339Z,18.27
2024-02-29T01:01:18.531Z,17.88
2024-02-29T01:03:46.660Z,18.13
2024-02-29T01:06:14.744Z,18.90
2024-02-29T01:08:42.748Z,19.10
2024-02-29T01:11:10.915Z,19.08
2024-02-29T01:13:39.069Z,18.90
2024-02-29T01:16:07.431Z,20.00
2024-02-29T01:18:37.250Z,20.55
2024-02-29T01:21:07.747Z,19.83
2024-02-29T01:23:35.802Z,19.63
2024-02-29T01:26:05.210Z,19.85
2024-02-29T01:28:33.229Z,18.58
2024-02-29T01:31:01.807Z,19.17
2024-02-29T01:33:29.979Z,18.20
2024-02-29T01:35:59.567Z,18.10
2024-02-29T01:38:27.598Z,18.83
2024-02-29T01:40:55.629Z,19.30
2024-02-29T01:43:23.700Z,18.73
2024-02-29T01:46:09.727Z,18.63
2024-02-29T01:48:37.880Z,18.53
2024-02-29T01:51:08.389Z,18.40
2024-02-29T01:53:36.821Z,18.27
2024-02-29T01:56:05.186Z,18.23
2024-02-29T01:58:34.388Z,18.23
2024-02-29T02:01:02.749Z,18.13
2024-02-29T02:03:31.473Z,17.98
2024-02-29T02:05:59.543Z,17.38
2024-02-29T02:08:31.346Z,17.67
2024-02-29T02:11:00.036Z,18.70
2024-02-29T02:13:28.057Z,16.77
2024-02-29T02:15:56.108Z,17.40
2024-02-29T02:18:24.269Z,17.50
2024-02-29T02:20:55.397Z,17.93
2024-02-29T02:23:23.480Z,17.73
2024-02-29T02:25:52.128Z,18.25
2024-02-29T02:28:20.277Z,18.60
2024-02-29T02:30:48.277Z,18.40
2024-02-29T02:33:16.984Z,18.70
2024-02-29T02:35:45.251Z,19.13
2024-02-29T02:38:14.821Z,18.97
2024-02-29T02:40:42.807Z,19.47
2024-02-29T02:43:10.845Z,19.58
2024-02-29T02:45:38.920Z,19.05
2024-02-29T02:48:07.701Z,18.92
2024-02-29T02:50:35.741Z,19.92
2024-02-29T02:53:05.414Z,19.70
2024-02-29T02:55:34.970Z,19.33
2024-02-29T02:58:03.083Z,19.57
2024-02-29T03:00:31.234Z,19.45
2024-02-29T03:03:00.852Z,19.25
2024-02-29T03:05:28.971Z,20.13
2024-02-29T03:07:56.998Z,19.92
2024-02-29T03:10:25.020Z,20.33
2024-02-29T03:12:54.472Z,18.38
2024-02-29T03:15:22.636Z,20.08
2024-02-29T03:17:50.772Z,18.47
2024-02-29T03:20:19.052Z,18.63
2024-02-29T03:22:47.087Z,19.65
2024-02-29T03:25:15.174Z,18.83
2024-02-29T03:27:43.353Z,19.08
2024-02-29T03:30:13.274Z,19.10
2024-02-29T03:32:41.307Z,18.42
2024-02-29T03:35:10.431Z,19.27
2024-02-29T03:37:38.465Z,19.20
2024-02-29T03:40:08.001Z,19.85
2024-02-29T03:42:36.063Z,19.23
2024-02-29T03:45:04.431Z,18.83
2024-02-29T03:47:34.000Z,18.48
2024-02-29T03:50:02.301Z,18.80
2024-02-29T03:52:30.386Z,19.52
2024-02-29T03:54:58.456Z,19.42
2024-02-29T03:57:26.532Z,19.33
2024-02-29T03:59:54.537Z,18.55
2024-02-29T04:02:24.611Z,19.23
2024-02-29T04:04:55.584Z,18.03
2024-02-29T04:07:23.672Z,18.38
2024-02-29T04:09:55.856Z,17.13
2024-02-29T04:12:24.119Z,18.33
2024-02-29T04:14:52.179Z,18.02
2024-02-29T04:17:20.529Z,17.30
2024-02-29T04:19:48.985Z,16.65
2024-02-29T04:22:19.622Z,16.67
2024-02-29T04:24:47.682Z,16.50
2024-02-29T04:27:15.718Z,18.25
2024-02-29T04:29:46.667Z,17.88
2024-02-29T04:32:14.713Z,18.25
2024-02-29T04:34:43.239Z,17.60
2024-02-29T04:37:11.315Z,17.95
2024-02-29T04:39:40.855Z,17.00
2024-02-29T04:42:08.883Z,17.58
2024-02-29T04:44:36.956Z,17.75
2024-02-29T04:47:05.955Z,16.30
2024-02-29T04:49:34.017Z,17.33
2024-02-29T04:52:02.107Z,18.03
2024-02-29T04:54:30.141Z,17.33
2024-02-29T04:56:59.671Z,17.05
2024-02-29T04:59:27.720Z,17.33
2024-02-29T05:01:55.800Z,17.58
2024-02-29T05:04:23.905Z,17.05
2024-02-29T05:06:51.977Z,16.90
2024-02-29T05:09:20.089Z,17.50
2024-02-29T05:11:48.212Z,16.80
2024-02-29T05:14:17.672Z,16.90
2024-02-29T05:16:45.682Z,18.02
2024-02-29T05:19:13.753Z,18.00
2024-02-29T05:21:44.941Z,17.67
2024-02-29T05:24:13.105Z,18.08
2024-02-29T05:26:41.112Z,18.63
2024-02-29T05:29:09.142Z,19.23
2024-02-29T05:31:56.819Z,18.73
2024-02-29T05:34:25.501Z,18.00
2024-02-29T05:36:53.724Z,18.10
2024-02-29T05:39:21.809Z,17.60
2024-02-29T05:41:50.008Z,17.50
2024-02-29T05:44:18.198Z,16.80
2024-02-29T05:46:46.369Z,17.00
2024-02-29T05:49:15.874Z,17.50
2024-02-29T05:51:44.086Z,16.30
2024-02-29T05:54:31.294Z,16.42
2024-02-29T05:57:01.074Z,17.13
2024-02-29T05:59:30.854Z,16.50
2024-02-29T06:02:00.110Z,17.92
2024-02-29T06:04:29.666Z,18.40
2024-02-29T06:06:57.850Z,16.60
2024-02-29T06:09:26.213Z,18.20
2024-02-29T06:11:54.219Z,18.15
2024-02-29T06:14:25.639Z,18.42
2024-02-29T06:16:53.722Z,17.43
2024-02-29T06:19:21.804Z,17.55
2024-02-29T06:21:51.231Z,18.00
2024-02-29T06:24:20.261Z,18.45
2024-02-29T06:26:48.627Z,18.42
2024-02-29T06:29:16.583Z,18.67
2024-02-29T06:31:44.648Z,17.98
2024-02-29T06:34:12.798Z,17.65
2024-02-29T06:36:41.257Z,18.48
2024-02-29T06:39:11.368Z,17.60
2024-02-29T06:41:39.652Z,17.80
2024-02-29T06:44:08.414Z,17.52
2024-02-29T06:46:39.656Z,17.67
2024-02-29T06:49:07.734Z,17.98
2024-02-29T06:51:36.598Z,18.00
2024-02-29T06:54:06.412Z,17.10
2024-02-29T06:56:35.836Z,16.50
2024-02-29T06:59:04.620Z,16.33
2024-02-29T07:01:33.820Z,16.40
2024-02-29T07:04:02.100Z,15.93
2024-02-29T07:06:30.233Z,16.65
2024-02-29T07:08:58.228Z,15.88
2024-02-29T07:11:27.266Z,15.27
2024-02-29T07:13:57.186Z,14.85
2024-02-29T07:16:26.420Z,14.80
2024-02-29T07:18:54.518Z,14.88
2024-02-29T07:21:22.559Z,14.38
2024-02-29T07:23:52.515Z,14.98
2024-02-29T07:26:20.524Z,15.50
2024-02-29T07:28:48.553Z,15.57
2024-02-29T07:31:20.848Z,14.60
2024-02-29T07:33:48.973Z,14.93
2024-02-29T07:36:17.015Z,15.67
2024-02-29T07:38:45.230Z,16.08
2024-02-29T07:41:13.247Z,15.80
2024-02-29T07:43:41.328Z,16.02
2024-02-29T07:46:10.016Z,16.08
2024-02-29T07:48:39.589Z,16.80
2024-02-29T07:51:07.740Z,16.07
2024-02-29T07:53:35.732Z,15.10
2024-02-29T07:56:05.668Z,15.13
2024-02-29T07:58:33.725Z,15.57
2024-02-29T08:01:01.031Z,15.13
2024-02-29T08:03:29.123Z,15.80
2024-02-29T08:05:59.242Z,15.18
2024-02-29T08:08:27.323Z,14.57
2024-02-29T08:10:55.485Z,15.25
2024-02-29T08:13:23.607Z,14.52
2024-02-29T08:15:51.809Z,14.32
2024-02-29T08:18:20.053Z,15.32
2024-02-29T08:20:48.261Z,15.35
2024-02-29T08:23:17.827Z,15.20
2024-02-29T08:25:46.178Z,16.70
2024-02-29T08:28:14.352Z,16.00
2024-02-29T08:30:42.564Z,16.17
2024-02-29T08:33:10.930Z,16.27
2024-02-29T08:35:40.130Z,17.00
2024-02-29T08:38:08.202Z,16.93
2024-02-29T08:40:37.661Z,15.57
2024-02-29T08:43:06.012Z,16.33
2024-02-29T08:45:34.034Z,16.45
2024-02-29T08:48:02.375Z,16.13
2024-02-29T08:50:31.020Z,16.67
2024-02-29T08:52:59.231Z,16.17
2024-02-29T08:55:27.296Z,15.80
2024-02-29T08:57:56.655Z,17.20
2024-02-29T09:00:24.778Z,16.92
2024-02-29T09:02:52.862Z,17.77
2024-02-29T09:05:20.878Z,18.42
2024-02-29T09:07:48.946Z,18.08
2024-02-29T09:10:17.448Z,17.43
2024-02-29T09:12:46.243Z,17.40
2024-02-29T09:15:16.021Z,17.00
2024-02-29T09:17:44.078Z,16.67
2024-02-29T09:20:13.002Z,17.13
2024-02-29T09:22:41.667Z,16.95
2024-02-29T09:25:10.985Z,17.20
2024-02-29T09:27:39.499Z,16.47
2024-02-29T09:30:10.008Z,16.85
2024-02-29T09:32:41.914Z,16.23
2024-02-29T09:35:10.767Z,15.57
2024-02-29T09:37:38.887Z,16.17
2024-02-29T09:40:09.122Z,15.55
2024-02-29T09:42:38.947Z,16.70
2024-02-29T09:45:09.733Z,16.48
2024-02-29T09:47:43.975Z,15.18
2024-02-29T09:50:14.087Z,13.85
2024-02-29T09:52:42.174Z,14.80
2024-02-29T09:55:15.352Z,14.93
2024-02-29T09:57:43.764Z,14.57
2024-02-29T10:00:13.222Z,14.27
2024-02-29T10:02:43.686Z,14.27
2024-02-29T10:05:12.262Z,13.73
2024-02-29T10:07:44.771Z,13.32
2024-02-29T10:10:14.707Z,12.52
2024-02-29T10:12:44.623Z,13.27
2024-02-29T10:15:14.601Z,13.77
2024-02-29T10:17:44.503Z,13.57
2024-02-29T10:20:13.883Z,14.15
2024-02-29T10:22:43.770Z,13.48
2024-02-29T10:25:13.832Z,13.43
2024-02-29T10:27:42.626Z,13.90
2024-02-29T10:30:12.599Z,13.25
2024-02-29T10:32:41.981Z,13.48
2024-02-29T10:35:20.157Z,13.50
2024-02-29T10:37:49.263Z,13.30
2024-02-29T10:40:18.206Z,12.77
2024-02-29T10:42:46.443Z,12.83
2024-02-29T10:45:16.355Z,12.82
2024-02-29T10:47:48.693Z,12.77
2024-02-29T10:50:21.841Z,11.70
2024-02-29T10:52:51.696Z,12.02
2024-02-29T10:55:22.540Z,10.85
2024-02-29T10:58:04.692Z,11.75
2024-02-29T11:00:34.024Z,11.15
2024-02-29T11:03:02.445Z,10.05
2024-02-29T11:05:31.831Z,10.38
2024-02-29T11:08:00.129Z,10.25
2024-02-29T11:10:28.533Z,9.50
2024-02-29T11:12:59.790Z,10.00
2024-02-29T11:15:28.164Z,9.05
2024-02-29T11:17:56.280Z,9.65
2024-02-29T11:20:25.665Z,8.77
2024-02-29T11:23:10.952Z,9.48
2024-02-29T11:25:43.947Z,8.85
2024-02-29T11:28:12.577Z,8.97
2024-02-29T11:30:42.271Z,8.57
2024-02-29T11:33:11.256Z,8.93
2024-02-29T11:35:39.363Z,8.75
2024-02-29T11:38:10.232Z,8.75
2024-02-29T11:40:38.345Z,8.82
2024-02-29T11:43:08.624Z,8.10
2024-02-29T11:45:38.757Z,8.65
2024-02-29T11:48:07.238Z,8.43
2024-02-29T11:50:35.270Z,8.05
2024-02-29T11:53:03.434Z,8.30
2024-02-29T11:55:32.890Z,7.72
2024-02-29T11:58:01.714Z,8.15
2024-02-29T12:00:30.124Z,8.10
2024-02-29T12:02:58.836Z,8.10
2024-02-29T12:05:26.858Z,8.05
2024-02-29T12:07:54.952Z,9.15
2024-02-29T12:10:23.436Z,9.63
2024-02-29T12:12:52.927Z,9.23
2024-02-29T12:15:21.388Z,10.18
2024-02-29T12:17:49.460Z,10.80
2024-02-29T12:20:18.709Z,11.55
2024-02-29T12:22:50.063Z,11.32
2024-02-29T12:25:18.880Z,11.80
2024-02-29T12:27:47.216Z,11.73
2024-02-29T12:30:17.320Z,11.68
2024-02-29T12:32:45.804Z,10.45
2024-02-29T12:35:14.667Z,10.25
2024-02-29T12:37:43.445Z,11.07
2024-02-29T12:40:14.068Z,10.02
2024-02-29T12:42:42.818Z,8.80
2024-02-29T12:45:16.908Z,9.73
2024-02-29T12:47:48.875Z,9.43
2024-02-29T12:50:17.869Z,9.88
2024-02-29T12:52:48.809Z,10.07
2024-02-29T12:55:17.525Z,9.90
2024-02-29T12:57:45.716Z,9.80
2024-02-29T13:00:20.206Z,8.95
2024-02-29T13:02:50.893Z,9.17
2024-02-29T13:05:19.181Z,8.82
2024-02-29T13:07:48.020Z,8.55
2024-02-29T13:10:16.107Z,9.97
2024-02-29T13:12:49.317Z,10.05
2024-02-29T13:15:22.033Z,10.15
2024-02-29T13:17:51.512Z,10.45
2024-02-29T13:20:19.849Z,9.93
2024-02-29T13:22:47.887Z,10.45
2024-02-29T13:25:16.035Z,10.38
2024-02-29T13:27:44.301Z,9.27
2024-02-29T13:30:12.910Z,9.27
2024-02-29T13:32:40.924Z,9.00
2024-02-29T13:35:11.010Z,9.35
2024-02-29T13:37:39.529Z,7.53
2024-02-29T13:40:09.960Z,8.20
2024-02-29T13:42:38.667Z,8.82
2024-02-29T13:45:10.685Z,9.70
2024-02-29T13:47:49.027Z,9.30
2024-02-29T13:50:20.033Z,8.98
2024-02-29T13:52:48.574Z,8.93
2024-02-29T13:55:17.368Z,8.10
2024-02-29T13:57:46.192Z,8.30
2024-02-29T14:00:16.402Z,7.20
2024-02-29T14:02:45.693Z,7.00
2024-02-29T14:05:13.958Z,7.57
2024-02-29T14:07:45.730Z,7.78
2024-02-29T14:10:15.973Z,8.47
2024-02-29T14:12:46.492Z,7.77
2024-02-29T14:15:20.224Z,7.73
2024-02-29T14:17:48.287Z,7.90
2024-02-29T14:20:16.480Z,8.07
2024-02-29T14:22:45.897Z,8.40
2024-02-29T14:25:15.452Z,8.17
2024-02-29T14:27:43.570Z,8.40
2024-02-29T14:30:17.423Z,8.18
2024-02-29T14:32:45.532Z,8.77
2024-02-29T14:35:15.316Z,8.25
2024-02-29T14:37:43.451Z,8.82
2024-02-29T14:40:16.070Z,8.07
2024-02-29T14:42:44.258Z,7.85
2024-02-29T14:45:13.007Z,7.55
2024-02-29T14:47:41.087Z,8.32
2024-02-29T14:50:10.642Z,7.47
2024-02-29T14:52:40.926Z,7.90
2024-02-29T14:55:14.439Z,7.97
2024-02-29T14:57:43.933Z,7.72
2024-02-29T15:00:15.405Z,7.90
2024-02-29T15:02:44.425Z,8.10
2024-02-29T15:05:14.524Z,8.38
2024-02-29T15:07:43.169Z,8.55
2024-02-29T15:10:13.687Z,8.23
2024-02-29T15:12:43.227Z,8.93
2024-02-29T15:15:12.133Z,8.25
2024-02-29T15:17:40.431Z,8.70
2024-02-29T15:20:11.258Z,7.65
2024-02-29T15:22:40.753Z,8.07
2024-02-29T15:25:16.131Z,7.97
2024-02-29T15:27:54.586Z,8.60
2024-02-29T15:30:26.366Z,8.65
2024-02-29T15:32:55.405Z,8.65
2024-02-29T15:35:23.627Z,9.07
2024-02-29T15:37:52.084Z,9.00
2024-02-29T15:40:20.215Z,9.25
2024-02-29T15:42:49.675Z,9.63
2024-02-29T15:45:17.999Z,10.20
2024-02-29T15:47:48.038Z,8.93
2024-02-29T15:50:16.412Z,8.60
2024-02-29T15:52:44.525Z,8.18
2024-02-29T15:55:13.185Z,8.68
2024-02-29T15:57:41.446Z,8.68
2024-02-29T16:00:16.741Z,8.70
2024-02-29T16:02:44.748Z,8.02
2024-02-29T16:05:16.718Z,8.88
2024-02-29T16:07:44.944Z,8.63
2024-02-29T16:10:13.161Z,9.85
2024-02-29T16:12:41.642Z,10.25
2024-02-29T16:15:19.698Z,10.43
2024-02-29T16:17:46.913Z,9.35
2024-02-29T16:20:15.223Z,9.95
2024-02-29T16:22:43.320Z,10.20
2024-02-29T16:25:11.650Z,9.53
2024-02-29T16:27:40.059Z,9.90
2024-02-29T16:30:12.780Z,10.07
2024-02-29T16:32:46.592Z,9.60
2024-02-29T16:35:15.672Z,9.20
2024-02-29T16:37:43.735Z,9.13
2024-02-29T16:40:13.159Z,9.30
2024-02-29T16:42:43.498Z,9.50
2024-02-29T16:45:15.521Z,9.50
2024-02-29T16:47:45.219Z,9.37
2024-02-29T16:50:16.687Z,9.70
2024-02-29T16:52:44.849Z,9.73
2024-02-29T16:55:13.194Z,9.10
2024-02-29T16:57:41.262Z,8.90
2024-02-29T17:00:12.249Z,9.15
2024-02-29T17:02:40.802Z,9.27
2024-02-29T17:05:12.463Z,8.83
2024-02-29T17:07:40.644Z,9.60
2024-02-29T17:10:16.029Z,9.57
2024-02-29T17:12:44.144Z,9.70
2024-02-29T17:15:13.187Z,9.47
2024-02-29T17:17:41.249Z,9.00
2024-02-29T17:20:12.290Z,9.10
2024-02-29T17:22:40.352Z,9.00
2024-02-29T17:25:09.982Z,9.73
2024-02-29T17:27:38.092Z,9.00
2024-02-29T17:30:07.170Z,9.05
2024-02-29T17:32:35.238Z,9.67
2024-02-29T17:35:03.353Z,9.95
2024-02-29T17:37:32.902Z,10.13
2024-02-29T17:40:01.218Z,10.10
2024-02-29T17:42:29.548Z,9.77
2024-02-29T17:44:57.654Z,10.80
2024-02-29T17:47:25.661Z,11.35
2024-02-29T17:49:53.706Z,11.15
2024-02-29T17:52:21.781Z,12.20
2024-02-29T17:54:51.772Z,11.38
2024-02-29T17:57:19.847Z,12.02
2024-02-29T17:59:47.871Z,11.13
2024-02-29T18:02:15.963Z,11.73
2024-02-29T18:04:44.132Z,11.70
2024-02-29T18:07:12.178Z,11.82
2024-02-29T18:09:42.181Z,12.00
2024-02-29T18:12:11.715Z,12.52
2024-02-29T18:14:39.734Z,12.80
2024-02-29T18:17:07.793Z,13.15
2024-02-29T18:19:35.932Z,13.68
2024-02-29T18:22:04.261Z,14.52
2024-02-29T18:24:32.394Z,15.27
2024-02-29T18:27:01.217Z,15.03
2024-02-29T18:29:30.592Z,15.57
2024-02-29T18:31:58.582Z,15.73
2024-02-29T18:34:26.797Z,16.70
2024-02-29T18:36:54.854Z,17.17
2024-02-29T18:39:22.902Z,15.60
2024-02-29T18:41:50.991Z,16.30
2024-02-29T18:44:19.011Z,16.50
2024-02-29T18:46:48.567Z,16.98
2024-02-29T18:49:17.622Z,17.07
2024-02-29T18:51:45.976Z,16.42
2024-02-29T18:54:14.435Z,15.85
2024-02-29T18:56:43.315Z,16.63
2024-02-29T18:59:13.794Z,16.90
2024-02-29T19:01:43.463Z,17.15
2024-02-29T19:04:13.225Z,17.15
2024-02-29T19:06:41.247Z,16.23
2024-02-29T19:09:09.362Z,16.33
2024-02-29T19:11:40.878Z,16.00
2024-02-29T19:14:08.957Z,16.27
2024-02-29T19:16:40.370Z,16.25
2024-02-29T19:19:08.463Z,16.23
2024-02-29T19:21:38.720Z,16.43
2024-02-29T19:24:11.510Z,16.00
2024-02-29T19:26:39.660Z,15.85
2024-02-29T19:29:07.844Z,16.25
2024-02-29T19:31:35.950Z,16.63
2024-02-29T19:34:06.090Z,16.05
2024-02-29T19:36:34.183Z,16.57
2024-02-29T19:39:04.026Z,16.33
2024-02-29T19:41:32.081Z,16.20
2024-02-29T19:44:00.186Z,16.10
2024-02-29T19:46:28.492Z,16.42
2024-02-29T19:48:57.808Z,16.27
2024-02-29T19:51:25.914Z,14.95
2024-02-29T19:53:53.962Z,16.40
2024-02-29T19:56:23.389Z,16.25
2024-02-29T19:58:51.465Z,15.57
2024-02-29T20:01:19.520Z,16.80
2024-02-29T20:03:47.588Z,15.75
2024-02-29T20:06:15.845Z,16.00
2024-02-29T20:08:44.611Z,16.40
2024-02-29T20:11:12.636Z,16.10
2024-02-29T20:13:42.110Z,16.55
2024-02-29T20:16:10.176Z,16.63
2024-02-29T20:18:38.337Z,16.90
2024-02-29T20:21:07.093Z,17.67
2024-02-29T20:23:35.693Z,17.60
2024-02-29T20:26:03.872Z,17.73
2024-02-29T20:28:32.100Z,17.88
2024-02-29T20:31:02.451Z,17.23
2024-02-29T20:33:30.532Z,16.95
2024-02-29T20:35:58.596Z,16.30
2024-02-29T20:38:26.567Z,16.17
2024-02-29T20:40:54.588Z,14.83
2024-02-29T20:43:22.717Z,15.23
2024-02-29T20:45:51.992Z,14.40
2024-02-29T20:48:21.466Z,14.95
2024-02-29T20:50:49.656Z,14.50
2024-02-29T20:53:17.665Z,14.93
2024-02-29T20:55:45.826Z,15.25
2024-02-29T20:58:14.173Z,14.25
2024-02-29T21:00:43.315Z,14.73
2024-02-29T21:03:11.377Z,14.32
2024-02-29T21:05:40.904Z,15.23
2024-02-29T21:08:09.516Z,14.67
2024-02-29T21:10:37.977Z,14.37
2024-02-29T21:13:06.154Z,14.25
2024-02-29T21:15:34.227Z,14.23
2024-02-29T21:18:02.309Z,13.37
2024-02-29T21:20:30.709Z,13.82
2024-02-29T21:23:00.096Z,14.02
2024-02-29T21:25:28.255Z,12.75
2024-02-29T21:27:56.360Z,12.95
2024-02-29T21:30:24.708Z,13.45
2024-02-29T21:32:53.253Z,13.48
2024-02-29T21:35:23.155Z,13.70
2024-02-29T21:37:51.179Z,13.93
2024-02-29T21:40:20.652Z,13.52
2024-02-29T21:42:50.240Z,13.40
2024-02-29T21:45:18.570Z,13.77
2024-02-29T21:47:46.611Z,13.55
2024-02-29T21:50:14.722Z,14.10
2024-02-29T21:52:42.762Z,14.15
2024-02-29T21:55:11.996Z,14.25
2024-02-29T21:57:41.410Z,14.13
2024-02-29T22:00:10.572Z,14.13
2024-02-29T22:02:42.626Z,13.27
2024-02-29T22:05:13.501Z,12.95
2024-02-29T22:07:42.608Z,13.10
2024-02-29T22:10:13.450Z,13.40
2024-02-29T22:12:43.051Z,13.15
2024-02-29T22:15:11.729Z,12.13
2024-02-29T22:17:39.853Z,12.68
2024-02-29T22:20:11.165Z,12.30
2024-02-29T22:22:39.336Z,12.25
2024-02-29T22:25:08.674Z,12.40
2024-02-29T22:27:36.759Z,12.05
2024-02-29T22:30:07.872Z,12.05
2024-02-29T22:32:36.177Z,11.57
2024-02-29T22:35:07.751Z,11.73
2024-02-29T22:37:36.432Z,11.02
2024-02-29T22:40:08.670Z,10.95
2024-02-29T22:42:36.864Z,10.82
2024-02-29T22:45:07.834Z,11.17
2024-02-29T22:47:35.907Z,10.35
2024-02-29T22:50:02.997Z,10.77
2024-02-29T22:52:31.175Z,10.98
2024-02-29T22:54:59.432Z,10.15
2024-02-29T22:57:27.478Z,10.63
2024-02-29T22:59:55.584Z,9.80
2024-02-29T23:02:25.009Z,10.45
2024-02-29T23:04:52.992Z,10.30
2024-02-29T23:07:21.081Z,10.60
2024-02-29T23:09:49.473Z,10.93
2024-02-29T23:12:17.647Z,10.30
2024-02-29T23:14:46.579Z,10.00
2024-02-29T23:17:14.614Z,10.05
2024-02-29T23:19:43.933Z,10.10
2024-02-29T23:22:12.691Z,9.73
2024-02-29T23:24:40.740Z,9.95
2024-02-29T23:27:08.736Z,9.73
2024-02-29T23:29:36.976Z,9.75
2024-02-29T23:32:05.468Z,10.27
2024-02-29T23:34:33.449Z,9.90
2024-02-29T23:37:04.829Z,10.48
2024-02-29T23:39:32.800Z,9.70
2024-02-29T23:42:00.773Z,9.60
2024-02-29T23:44:28.756Z,9.85
2024-02-29T23:46:56.751Z,10.50
2024-02-29T23:49:25.097Z,10.05
2024-02-29T23:51:53.556Z,9.95
2024-02-29T23:54:22.907Z,9.65
2024-02-29T23:56:51.410Z,9.73
2024-02-29T23:59:20.268Z,9.88
